Time;durP1;ratioP1;P1;durP2;ratioP2;P2;SDS_P1;SDS_P2;PMS_P1;PMS_P2;Temp;Humidity;BMP_temperature;BMP_pressure;BME280_temperature;BME280_humidity;BME280_pressure;Samples;Min_cycle;Max_cycle;Signal;HPM_P1;HPM_P2
2023/12/19 00:01:47;;;;;;;28.93;19.57;;;7.80;99.90;;;;;;5001980;28;20490;-61
2023/12/19 00:04:15;;;;;;;31.20;19.57;;;7.80;99.90;;;;;;5005994;28;20567;-61
2023/12/19 00:06:43;;;;;;;29.13;20.43;;;7.80;99.90;;;;;;5006474;28;20496;-63
2023/12/19 00:09:13;;;;;;;26.30;19.00;;;7.90;99.90;;;;;;5006472;28;20469;-62
2023/12/19 00:11:41;;;;;;;31.20;20.57;;;7.90;99.90;;;;;;5005574;28;20472;-62
2023/12/19 00:14:10;;;;;;;26.33;19.07;;;7.90;99.90;;;;;;5005797;28;20476;-64
2023/12/19 00:16:38;;;;;;;32.33;20.70;;;7.90;99.90;;;;;;5002582;28;20558;-62
2023/12/19 00:19:08;;;;;;;30.23;20.70;;;7.90;99.90;;;;;;5006134;28;20476;-62
2023/12/19 00:21:36;;;;;;;26.83;19.73;;;7.90;99.90;;;;;;5005178;28;20511;-62
2023/12/19 00:24:05;;;;;;;26.00;21.10;;;7.90;99.90;;;;;;5005808;28;20480;-61
2023/12/19 00:26:33;;;;;;;29.80;20.10;;;7.90;99.90;;;;;;5005702;28;20496;-61
2023/12/19 00:29:01;;;;;;;28.97;20.20;;;7.90;99.90;;;;;;5006672;28;21060;-62
2023/12/19 00:31:30;;;;;;;27.27;20.63;;;7.90;99.90;;;;;;4995699;28;21004;-62
2023/12/19 00:33:59;;;;;;;27.17;21.20;;;7.90;99.90;;;;;;5004431;28;20484;-62
2023/12/19 00:36:27;;;;;;;27.07;19.63;;;7.90;99.90;;;;;;5003736;28;20499;-62
2023/12/19 00:38:55;;;;;;;25.37;18.60;;;7.90;99.90;;;;;;5005028;28;20550;-62
2023/12/19 00:41:23;;;;;;;26.93;19.00;;;7.90;99.90;;;;;;5006708;28;20977;-62
2023/12/19 00:43:51;;;;;;;27.77;19.30;;;7.90;99.90;;;;;;5004010;28;20935;-62
2023/12/19 00:46:19;;;;;;;27.93;19.53;;;7.80;99.90;;;;;;5002082;28;21102;-62
2023/12/19 00:48:48;;;;;;;22.90;17.00;;;7.80;99.90;;;;;;5004967;28;20472;-62
2023/12/19 00:51:17;;;;;;;23.80;16.37;;;7.80;99.90;;;;;;5006624;28;20476;-62
2023/12/19 00:53:45;;;;;;;23.73;17.20;;;7.80;99.90;;;;;;5002429;28;20480;-61
2023/12/19 00:56:13;;;;;;;22.13;16.50;;;7.80;99.90;;;;;;5004707;28;20492;-62
2023/12/19 00:58:41;;;;;;;25.70;17.10;;;7.80;99.90;;;;;;5002929;28;20588;-62
2023/12/19 01:01:09;;;;;;;21.20;16.67;;;7.90;99.90;;;;;;5003984;28;20478;-62
2023/12/19 01:03:37;;;;;;;24.40;17.10;;;7.90;99.90;;;;;;5005063;28;20913;-62
2023/12/19 01:06:07;;;;;;;21.13;15.10;;;7.90;99.90;;;;;;5004980;28;20503;-61
2023/12/19 01:08:36;;;;;;;22.33;15.40;;;7.90;99.90;;;;;;5004141;28;20565;-62
2023/12/19 01:11:04;;;;;;;20.23;15.87;;;7.90;99.90;;;;;;4999470;28;20479;-63
2023/12/19 01:13:32;;;;;;;20.90;15.90;;;7.90;99.90;;;;;;5004309;28;20480;-63
2023/12/19 01:16:00;;;;;;;19.20;15.57;;;7.90;99.90;;;;;;5002193;28;20484;-63
2023/12/19 01:18:28;;;;;;;22.33;16.47;;;7.90;99.90;;;;;;4995529;28;20659;-62
2023/12/19 01:20:56;;;;;;;19.77;14.97;;;7.90;99.90;;;;;;5005671;28;20474;-61
2023/12/19 01:23:26;;;;;;;21.47;16.37;;;7.90;99.90;;;;;;5004094;28;20562;-62
2023/12/19 01:25:54;;;;;;;21.60;15.47;;;7.90;99.90;;;;;;5003444;28;21100;-63
2023/12/19 01:28:22;;;;;;;20.60;15.37;;;7.90;99.90;;;;;;4996710;28;21064;-62
2023/12/19 01:30:50;;;;;;;21.67;16.03;;;7.90;99.90;;;;;;5004210;28;20936;-62
2023/12/19 01:33:18;;;;;;;20.53;16.13;;;7.90;99.90;;;;;;4997518;28;20482;-62
2023/12/19 01:35:46;;;;;;;18.83;15.10;;;7.90;99.90;;;;;;5002923;28;20492;-62
2023/12/19 01:38:14;;;;;;;20.43;15.27;;;7.90;99.90;;;;;;5001419;28;20559;-63
2023/12/19 01:40:44;;;;;;;17.73;14.20;;;7.90;99.90;;;;;;4997867;28;20465;-62
2023/12/19 01:43:19;;;;;;;20.30;15.87;;;7.90;99.90;;;;;;5002578;28;20559;-63
2023/12/19 01:45:48;;;;;;;19.47;14.47;;;7.90;99.90;;;;;;5000564;28;20574;-63
2023/12/19 01:48:17;;;;;;;20.23;14.50;;;7.90;99.90;;;;;;5005273;28;20464;-65
2023/12/19 01:50:47;;;;;;;19.93;15.23;;;7.90;99.90;;;;;;5002101;28;21011;-61
2023/12/19 01:53:16;;;;;;;22.53;15.70;;;7.90;99.90;;;;;;5005170;28;20523;-61
2023/12/19 01:55:45;;;;;;;20.10;14.40;;;7.90;99.90;;;;;;5000720;28;20605;-60
2023/12/19 01:58:15;;;;;;;18.50;14.97;;;7.90;99.90;;;;;;4999640;28;20492;-62
2023/12/19 02:00:43;;;;;;;19.13;15.83;;;7.90;99.90;;;;;;5001741;28;20480;-62
2023/12/19 02:03:11;;;;;;;22.60;16.50;;;7.90;99.90;;;;;;5002516;28;20495;-62
2023/12/19 02:05:42;;;;;;;22.23;16.17;;;7.90;99.90;;;;;;5002717;28;20499;-61
2023/12/19 02:08:10;;;;;;;20.80;15.97;;;7.90;99.90;;;;;;5000714;28;20472;-64
2023/12/19 02:10:38;;;;;;;21.10;15.20;;;7.90;99.90;;;;;;5002473;28;20500;-60
2023/12/19 02:13:07;;;;;;;20.77;15.70;;;7.90;99.90;;;;;;5002291;28;20470;-63
2023/12/19 02:15:35;;;;;;;21.60;14.93;;;7.90;99.90;;;;;;5002847;28;21000;-61
2023/12/19 02:18:14;;;;;;;21.10;15.30;;;7.90;99.90;;;;;;5006680;28;20496;-63
2023/12/19 02:20:42;;;;;;;20.07;15.50;;;7.90;99.90;;;;;;5000263;28;21036;-63
2023/12/19 02:23:11;;;;;;;19.90;14.87;;;7.90;99.90;;;;;;5003532;28;20492;-60
2023/12/19 02:25:40;;;;;;;19.97;15.43;;;7.90;99.90;;;;;;5004077;28;20578;-60
2023/12/19 02:28:08;;;;;;;21.00;15.20;;;7.90;99.90;;;;;;5002873;28;20471;-63
2023/12/19 02:30:37;;;;;;;22.57;16.00;;;7.90;99.90;;;;;;5003794;28;20858;-63
2023/12/19 02:33:09;;;;;;;17.63;13.80;;;7.90;99.90;;;;;;5003534;28;20479;-63
2023/12/19 02:35:37;;;;;;;17.47;14.50;;;7.90;99.90;;;;;;5002261;28;20930;-64
2023/12/19 02:38:05;;;;;;;18.70;14.73;;;7.90;99.90;;;;;;5003754;28;20985;-61
2023/12/19 02:40:34;;;;;;;17.80;13.80;;;7.90;99.90;;;;;;4999525;28;20594;-62
2023/12/19 02:43:02;;;;;;;20.87;15.73;;;7.90;99.90;;;;;;5000475;28;20472;-61
2023/12/19 02:45:31;;;;;;;21.80;15.23;;;7.90;99.90;;;;;;5002533;28;20476;-63
2023/12/19 02:48:00;;;;;;;18.83;14.80;;;7.90;99.90;;;;;;5004907;28;20852;-63
2023/12/19 02:50:28;;;;;;;18.87;14.33;;;7.90;99.90;;;;;;5006123;28;20476;-61
2023/12/19 02:52:57;;;;;;;17.97;14.90;;;7.90;99.90;;;;;;5007006;28;20475;-61
2023/12/19 02:55:25;;;;;;;19.80;15.47;;;7.90;99.90;;;;;;5002292;28;20859;-61
2023/12/19 02:57:54;;;;;;;19.60;15.07;;;7.90;99.90;;;;;;5007966;28;20587;-60
2023/12/19 03:00:23;;;;;;;18.60;15.27;;;8.00;99.90;;;;;;5005984;28;21008;-62
2023/12/19 03:02:51;;;;;;;18.70;16.03;;;8.00;99.90;;;;;;5005810;28;20965;-61
2023/12/19 03:05:19;;;;;;;21.40;15.93;;;7.90;99.90;;;;;;5007479;28;20524;-62
2023/12/19 03:07:48;;;;;;;19.37;15.70;;;7.90;99.90;;;;;;5007207;28;21010;-64
2023/12/19 03:10:16;;;;;;;20.50;16.37;;;7.80;99.90;;;;;;5006496;28;20468;-64
2023/12/19 03:12:44;;;;;;;19.97;16.40;;;7.80;99.90;;;;;;5006458;28;20558;-63
2023/12/19 03:15:14;;;;;;;20.00;15.70;;;7.80;99.90;;;;;;5004529;28;20478;-65
2023/12/19 03:17:42;;;;;;;19.17;14.87;;;7.80;99.90;;;;;;5006466;28;20476;-65
2023/12/19 03:20:10;;;;;;;18.90;15.10;;;7.80;99.90;;;;;;5005845;28;20615;-61
2023/12/19 03:22:41;;;;;;;20.77;15.00;;;7.80;99.90;;;;;;5006799;28;20551;-63
2023/12/19 03:25:09;;;;;;;18.00;14.10;;;7.80;99.90;;;;;;5006310;28;20484;-64
2023/12/19 03:27:37;;;;;;;19.23;14.23;;;7.80;99.90;;;;;;5008321;28;20520;-63
2023/12/19 03:30:07;;;;;;;17.97;14.67;;;7.80;99.90;;;;;;5006789;28;20468;-63
2023/12/19 03:32:37;;;;;;;18.63;14.13;;;7.80;99.90;;;;;;5004486;28;22371;-66
2023/12/19 03:35:06;;;;;;;17.13;13.70;;;7.80;99.90;;;;;;5002930;28;21201;-63
2023/12/19 03:37:33;;;;;;;17.97;14.70;;;7.80;99.90;;;;;;5004475;28;20469;-64
2023/12/19 03:40:02;;;;;;;17.87;14.17;;;7.80;99.90;;;;;;5007253;28;20488;-61
2023/12/19 03:42:30;;;;;;;18.40;13.90;;;7.70;99.90;;;;;;5005889;28;20474;-63
2023/12/19 03:45:07;;;;;;;18.37;14.87;;;7.70;99.90;;;;;;4992823;28;21115;-64
2023/12/19 03:47:37;;;;;;;17.03;14.40;;;7.70;99.90;;;;;;5006343;28;20909;-62
2023/12/19 03:50:06;;;;;;;18.03;13.60;;;7.70;99.90;;;;;;5006273;28;20475;-63
2023/12/19 03:52:34;;;;;;;16.57;12.30;;;7.70;99.90;;;;;;5007597;28;20503;-63
2023/12/19 03:55:03;;;;;;;15.07;13.20;;;7.70;99.90;;;;;;5001855;28;20604;-63
2023/12/19 03:57:31;;;;;;;14.40;12.70;;;7.70;99.90;;;;;;5006371;28;20862;-62
2023/12/19 03:59:59;;;;;;;13.57;11.73;;;7.70;99.90;;;;;;5006735;28;20570;-62
2023/12/19 04:02:27;;;;;;;13.27;11.50;;;7.70;99.90;;;;;;5004523;28;21165;-63
2023/12/19 04:04:56;;;;;;;14.77;11.83;;;7.70;99.90;;;;;;5003779;28;20481;-63
2023/12/19 04:07:24;;;;;;;14.57;11.13;;;7.80;99.90;;;;;;5007352;28;20464;-64
2023/12/19 04:09:52;;;;;;;12.77;10.50;;;7.70;99.90;;;;;;5007435;28;20999;-63
2023/12/19 04:12:20;;;;;;;13.10;10.73;;;7.80;99.90;;;;;;4996064;28;21195;-63
2023/12/19 04:14:48;;;;;;;11.87;10.50;;;7.70;99.90;;;;;;5001857;28;20492;-61
2023/12/19 04:17:16;;;;;;;11.70;10.23;;;7.80;99.90;;;;;;5004208;28;20491;-64
2023/12/19 04:19:44;;;;;;;13.53;10.40;;;7.70;99.90;;;;;;5004871;28;20518;-61
2023/12/19 04:22:14;;;;;;;12.97;10.80;;;7.70;99.90;;;;;;5002657;28;20469;-62
2023/12/19 04:24:42;;;;;;;13.23;10.77;;;7.70;99.90;;;;;;4998134;28;20495;-60
2023/12/19 04:27:10;;;;;;;12.60;10.67;;;7.70;99.90;;;;;;5003172;28;20484;-61
2023/12/19 04:29:38;;;;;;;12.33;10.73;;;7.70;99.90;;;;;;4997400;28;20476;-61
2023/12/19 04:32:07;;;;;;;10.70;9.40;;;7.60;99.90;;;;;;5000406;28;21054;-62
2023/12/19 04:34:35;;;;;;;11.53;9.60;;;7.70;99.90;;;;;;5002636;28;21292;-63
2023/12/19 04:37:03;;;;;;;11.77;9.80;;;7.70;99.90;;;;;;5001034;28;20495;-63
2023/12/19 04:39:33;;;;;;;11.80;9.47;;;7.70;99.90;;;;;;5004884;28;20992;-61
2023/12/19 04:42:01;;;;;;;13.83;11.10;;;7.60;99.90;;;;;;5002920;28;20984;-63
2023/12/19 04:44:29;;;;;;;12.00;10.53;;;7.60;99.90;;;;;;5003686;28;20516;-62
2023/12/19 04:46:57;;;;;;;12.17;10.63;;;7.60;99.90;;;;;;5004398;28;20934;-61
2023/12/19 04:49:25;;;;;;;12.53;11.13;;;7.60;99.90;;;;;;5001753;28;20476;-62
2023/12/19 04:51:53;;;;;;;12.27;10.00;;;7.60;99.90;;;;;;4995957;28;20511;-64
2023/12/19 04:54:21;;;;;;;11.80;10.60;;;7.60;99.90;;;;;;5000085;28;20547;-63
2023/12/19 04:56:51;;;;;;;12.40;10.43;;;7.60;99.90;;;;;;4999095;28;20524;-62
2023/12/19 04:59:19;;;;;;;12.33;10.60;;;7.60;99.90;;;;;;5001651;28;20559;-62
2023/12/19 05:01:47;;;;;;;10.90;9.37;;;7.60;99.90;;;;;;4998773;28;21120;-62
2023/12/19 05:04:15;;;;;;;10.97;9.67;;;7.60;99.90;;;;;;5000568;28;20952;-62
2023/12/19 05:06:43;;;;;;;11.87;10.13;;;7.60;99.90;;;;;;5002255;28;20488;-64
2023/12/19 05:09:11;;;;;;;11.57;9.87;;;7.60;99.90;;;;;;5002354;28;20508;-64
2023/12/19 05:11:42;;;;;;;11.47;9.97;;;7.60;99.90;;;;;;5003014;28;21038;-63
2023/12/19 05:14:12;;;;;;;11.47;9.43;;;7.60;99.90;;;;;;5004231;28;20571;-63
2023/12/19 05:16:40;;;;;;;10.40;8.80;;;7.60;99.90;;;;;;5002815;28;20607;-63
2023/12/19 05:19:07;;;;;;;11.13;9.60;;;7.60;99.90;;;;;;5001152;28;20472;-64
2023/12/19 05:21:39;;;;;;;11.80;10.10;;;7.60;99.90;;;;;;4998505;28;20496;-63
2023/12/19 05:24:09;;;;;;;12.20;10.90;;;7.60;99.90;;;;;;4999726;28;21861;-62
2023/12/19 05:26:37;;;;;;;11.40;9.93;;;7.60;99.90;;;;;;5000797;28;20504;-61
2023/12/19 05:29:05;;;;;;;12.07;9.63;;;7.60;99.90;;;;;;5004245;28;20547;-63
2023/12/19 05:31:34;;;;;;;14.03;10.67;;;7.60;99.90;;;;;;5003179;28;20504;-63
2023/12/19 05:34:03;;;;;;;12.33;9.80;;;7.60;99.90;;;;;;5002719;28;21005;-62
2023/12/19 05:36:33;;;;;;;11.10;9.60;;;7.50;99.90;;;;;;5004298;28;20498;-61
2023/12/19 05:39:07;;;;;;;10.80;9.40;;;7.50;99.90;;;;;;5005178;28;20478;-62
2023/12/19 05:41:35;;;;;;;12.00;9.50;;;7.50;99.90;;;;;;4998517;28;20858;-61
2023/12/19 05:44:03;;;;;;;10.67;9.23;;;7.50;99.90;;;;;;4991791;28;20595;-63
2023/12/19 05:46:32;;;;;;;10.63;8.57;;;7.50;99.90;;;;;;5004066;28;20547;-62
2023/12/19 05:49:02;;;;;;;10.27;8.87;;;7.50;99.90;;;;;;5003642;28;20495;-61
2023/12/19 05:51:31;;;;;;;9.80;8.20;;;7.50;99.90;;;;;;5004254;28;20587;-62
2023/12/19 05:53:59;;;;;;;10.20;8.37;;;7.50;99.90;;;;;;5003309;28;20499;-61
2023/12/19 05:56:28;;;;;;;9.07;8.17;;;7.40;99.90;;;;;;5002640;28;20492;-62
2023/12/19 05:58:56;;;;;;;9.53;8.03;;;7.50;99.90;;;;;;5002856;28;20567;-61
2023/12/19 06:01:24;;;;;;;9.47;8.00;;;7.50;99.90;;;;;;5004231;28;21561;-63
2023/12/19 06:03:52;;;;;;;9.90;8.30;;;7.50;99.90;;;;;;4998979;28;20484;-62
2023/12/19 06:06:22;;;;;;;8.40;7.53;;;7.40;99.90;;;;;;5001696;28;21034;-61
2023/12/19 06:08:50;;;;;;;8.40;7.23;;;7.40;99.90;;;;;;4999928;28;20491;-63
2023/12/19 06:11:26;;;;;;;9.20;7.63;;;7.40;99.90;;;;;;5000097;28;20518;-61
2023/12/19 06:13:54;;;;;;;7.70;6.90;;;7.40;99.90;;;;;;5001177;28;20472;-62
2023/12/19 06:16:22;;;;;;;7.60;6.80;;;7.40;99.90;;;;;;4998919;28;20510;-61
2023/12/19 06:18:51;;;;;;;7.63;6.40;;;7.40;99.90;;;;;;4995592;28;20508;-62
2023/12/19 06:21:19;;;;;;;8.70;6.87;;;7.40;99.90;;;;;;5003977;28;20846;-62
2023/12/19 06:23:49;;;;;;;7.00;6.30;;;7.30;99.90;;;;;;5001163;28;20555;-62
2023/12/19 06:26:17;;;;;;;6.90;5.63;;;7.40;99.90;;;;;;5005463;28;20538;-61
2023/12/19 06:28:45;;;;;;;6.37;5.77;;;7.40;99.90;;;;;;5008327;28;20475;-61
2023/12/19 06:31:13;;;;;;;7.03;5.20;;;7.40;99.90;;;;;;5007330;28;20551;-60
2023/12/19 06:33:43;;;;;;;7.00;5.83;;;7.30;99.90;;;;;;5006240;28;21034;-61
2023/12/19 06:36:26;;;;;;;6.00;5.40;;;7.30;99.90;;;;;;5006097;28;20496;-61
2023/12/19 06:38:56;;;;;;;5.00;4.50;;;7.40;99.90;;;;;;5006952;28;21025;-60
2023/12/19 06:41:24;;;;;;;5.40;4.83;;;7.40;99.90;;;;;;5005730;28;20492;-61
2023/12/19 06:43:52;;;;;;;5.93;5.30;;;7.30;99.90;;;;;;5006524;28;21004;-60
2023/12/19 06:46:20;;;;;;;5.30;4.80;;;7.30;99.90;;;;;;5005821;28;20583;-63
2023/12/19 06:48:48;;;;;;;5.60;5.07;;;7.30;99.90;;;;;;5002692;28;20472;-63
2023/12/19 06:51:24;;;;;;;5.10;4.60;;;7.30;99.90;;;;;;5001221;28;20852;-62
2023/12/19 06:53:54;;;;;;;4.70;4.20;;;7.30;99.90;;;;;;5005165;28;20486;-63
2023/12/19 06:56:26;;;;;;;4.70;4.20;;;7.30;99.90;;;;;;5009269;28;20575;-62
2023/12/19 06:58:55;;;;;;;4.40;4.00;;;7.30;99.90;;;;;;5005892;28;20991;-63
2023/12/19 07:01:24;;;;;;;4.23;3.90;;;7.30;99.90;;;;;;5004307;28;20494;-64
2023/12/19 07:03:52;;;;;;;3.93;3.63;;;7.40;99.90;;;;;;5005242;28;20559;-61
2023/12/19 07:06:21;;;;;;;4.03;3.63;;;7.40;99.90;;;;;;5004825;28;20563;-61
2023/12/19 07:08:50;;;;;;;4.30;3.90;;;7.40;99.90;;;;;;5007787;28;20961;-63
2023/12/19 07:11:21;;;;;;;4.23;3.93;;;7.40;99.90;;;;;;5005246;28;20483;-61
2023/12/19 07:13:50;;;;;;;3.77;3.47;;;7.40;99.90;;;;;;5007836;28;21053;-65
2023/12/19 07:16:19;;;;;;;3.80;3.40;;;7.40;99.90;;;;;;5004484;28;20566;-61
2023/12/19 07:18:48;;;;;;;4.30;3.90;;;7.40;99.90;;;;;;5003625;28;20478;-61
2023/12/19 07:21:20;;;;;;;3.90;3.50;;;7.40;99.90;;;;;;5007093;28;20871;-60
2023/12/19 07:23:48;;;;;;;3.70;3.40;;;7.40;99.90;;;;;;5004523;28;20492;-62
2023/12/19 07:26:21;;;;;;;4.47;3.80;;;7.40;99.90;;;;;;5006688;28;20586;-61
2023/12/19 07:28:51;;;;;;;3.57;3.27;;;7.30;99.90;;;;;;5006703;28;20464;-64
2023/12/19 07:31:21;;;;;;;4.20;3.57;;;7.30;99.90;;;;;;5009481;28;20505;-61
2023/12/19 07:33:51;;;;;;;4.23;3.83;;;7.30;99.90;;;;;;5005464;28;20472;-62
2023/12/19 07:36:19;;;;;;;4.17;3.87;;;7.40;99.90;;;;;;5006049;28;20554;-62
2023/12/19 07:38:48;;;;;;;3.80;3.50;;;7.30;99.90;;;;;;5007531;28;21046;-62
2023/12/19 07:41:16;;;;;;;4.13;3.73;;;7.40;99.90;;;;;;5009112;28;20519;-62
2023/12/19 07:43:44;;;;;;;3.80;3.50;;;7.30;99.90;;;;;;5003363;28;20476;-62
2023/12/19 07:46:13;;;;;;;4.20;3.90;;;7.40;99.90;;;;;;5008428;28;20496;-63
2023/12/19 07:48:42;;;;;;;4.13;3.73;;;7.40;99.90;;;;;;5006892;28;20630;-63
2023/12/19 07:51:16;;;;;;;4.60;4.00;;;7.30;99.90;;;;;;5005653;28;20468;-63
2023/12/19 07:53:44;;;;;;;4.40;4.00;;;7.30;99.90;;;;;;5003724;28;20488;-63
2023/12/19 07:56:12;;;;;;;4.20;3.80;;;7.30;99.90;;;;;;5005530;28;20590;-62
2023/12/19 07:58:40;;;;;;;4.80;4.40;;;7.30;99.90;;;;;;5005892;28;21286;-62
2023/12/19 08:01:11;;;;;;;3.83;3.53;;;7.30;99.90;;;;;;5007650;28;20583;-63
2023/12/19 08:03:42;;;;;;;4.10;3.70;;;7.30;99.90;;;;;;5004960;28;20563;-64
2023/12/19 08:06:11;;;;;;;3.70;3.40;;;7.30;99.90;;;;;;5008154;28;20570;-62
2023/12/19 08:08:39;;;;;;;3.60;3.30;;;7.30;99.90;;;;;;5002127;28;20535;-62
2023/12/19 08:11:07;;;;;;;3.40;3.20;;;7.30;99.90;;;;;;5006407;28;20551;-64
2023/12/19 08:13:36;;;;;;;4.27;3.97;;;7.30;99.90;;;;;;5002570;28;20563;-62
2023/12/19 08:16:05;;;;;;;3.50;3.20;;;7.30;99.90;;;;;;5004119;28;20904;-64
2023/12/19 08:18:33;;;;;;;3.10;2.80;;;7.30;99.90;;;;;;5007510;28;20472;-62
2023/12/19 08:21:05;;;;;;;3.33;3.03;;;7.30;99.90;;;;;;5004421;28;20611;-63
2023/12/19 08:23:33;;;;;;;3.10;2.90;;;7.30;99.90;;;;;;5004420;28;20479;-62
2023/12/19 08:26:01;;;;;;;3.40;2.83;;;7.30;99.90;;;;;;5008158;28;20583;-62
2023/12/19 08:28:29;;;;;;;3.43;2.90;;;7.30;99.90;;;;;;5008461;28;20475;-62
2023/12/19 08:30:57;;;;;;;3.00;2.80;;;7.40;99.90;;;;;;5004104;28;20531;-63
2023/12/19 08:33:25;;;;;;;2.73;2.53;;;7.40;99.90;;;;;;5004772;28;20479;-61
2023/12/19 08:35:53;;;;;;;2.70;2.40;;;7.30;99.90;;;;;;5003010;28;20502;-61
2023/12/19 08:38:22;;;;;;;3.20;2.90;;;7.30;99.90;;;;;;5002448;28;20894;-62
2023/12/19 08:40:50;;;;;;;2.97;2.77;;;7.30;99.90;;;;;;5004856;28;20555;-63
2023/12/19 08:43:19;;;;;;;2.57;2.37;;;7.30;99.90;;;;;;5001942;28;20495;-63
2023/12/19 08:45:49;;;;;;;2.67;2.47;;;7.30;99.90;;;;;;5005040;28;20499;-64
2023/12/19 08:48:17;;;;;;;2.27;2.07;;;7.30;99.90;;;;;;5008366;28;20910;-62
2023/12/19 08:50:46;;;;;;;2.40;2.20;;;7.30;99.90;;;;;;5007546;28;20507;-64
2023/12/19 08:53:14;;;;;;;2.10;2.00;;;7.30;99.90;;;;;;5007250;28;20512;-64
2023/12/19 08:55:46;;;;;;;2.53;2.33;;;7.30;99.90;;;;;;4997560;28;20961;-64
2023/12/19 08:58:14;;;;;;;2.57;2.37;;;7.30;99.90;;;;;;5006939;28;21000;-64
2023/12/19 09:00:42;;;;;;;2.97;2.77;;;7.30;99.90;;;;;;5006130;28;20483;-62
2023/12/19 09:03:11;;;;;;;1.97;1.87;;;7.30;99.90;;;;;;5003741;28;20579;-60
2023/12/19 09:05:39;;;;;;;2.23;2.03;;;7.30;99.90;;;;;;5005921;28;20488;-61
2023/12/19 09:08:07;;;;;;;1.93;1.83;;;7.30;99.90;;;;;;5007440;28;20566;-61
2023/12/19 09:10:35;;;;;;;2.17;2.00;;;7.20;99.90;;;;;;5006589;28;20964;-61
2023/12/19 09:13:05;;;;;;;2.20;2.10;;;7.30;99.90;;;;;;5005778;28;20504;-61
2023/12/19 09:15:33;;;;;;;2.03;1.80;;;7.20;99.90;;;;;;5006384;28;20495;-61
2023/12/19 09:18:02;;;;;;;2.00;1.90;;;7.20;99.90;;;;;;5002134;28;20480;-63
2023/12/19 09:20:30;;;;;;;2.80;2.30;;;7.20;99.90;;;;;;5004711;28;20980;-62
2023/12/19 09:22:58;;;;;;;1.80;1.70;;;7.20;99.90;;;;;;5007451;28;20547;-63
2023/12/19 09:25:26;;;;;;;2.70;2.43;;;7.20;99.90;;;;;;5006723;28;20486;-63
2023/12/19 09:27:55;;;;;;;2.03;1.90;;;7.20;99.90;;;;;;5006374;28;20542;-62
2023/12/19 09:30:25;;;;;;;2.30;2.20;;;7.20;99.90;;;;;;5007172;28;20464;-61
2023/12/19 09:32:53;;;;;;;2.07;1.90;;;7.20;99.90;;;;;;5005960;28;20531;-64
2023/12/19 09:35:21;;;;;;;2.00;1.90;;;7.20;99.90;;;;;;5005938;28;20480;-64
2023/12/19 09:37:49;;;;;;;2.27;2.03;;;7.30;99.90;;;;;;5004669;28;20526;-63
2023/12/19 09:40:19;;;;;;;2.00;1.90;;;7.30;99.90;;;;;;5007908;28;20508;-61
2023/12/19 09:42:47;;;;;;;1.93;1.83;;;7.30;99.90;;;;;;5006666;28;20495;-64
2023/12/19 09:45:16;;;;;;;2.50;2.30;;;7.30;99.90;;;;;;5003942;28;20542;-64
2023/12/19 09:47:59;;;;;;;2.40;2.20;;;7.30;99.90;;;;;;5002017;28;20551;-62
2023/12/19 09:50:27;;;;;;;2.07;1.97;;;7.30;99.90;;;;;;5003954;28;20841;-61
2023/12/19 09:52:57;;;;;;;2.10;2.00;;;7.30;99.90;;;;;;5004672;28;20508;-62
2023/12/19 09:55:27;;;;;;;2.80;2.60;;;7.30;99.90;;;;;;5004930;28;20495;-62
2023/12/19 09:57:57;;;;;;;2.70;2.20;;;7.30;99.90;;;;;;5003415;28;20899;-61
2023/12/19 10:00:28;;;;;;;2.33;2.13;;;7.20;99.90;;;;;;5003615;28;20543;-62
2023/12/19 10:02:59;;;;;;;2.67;2.43;;;7.20;99.90;;;;;;5001678;28;20519;-62
2023/12/19 10:05:27;;;;;;;2.00;1.90;;;7.20;99.90;;;;;;5002811;28;20843;-62
2023/12/19 10:07:57;;;;;;;2.47;2.27;;;7.20;99.90;;;;;;5003128;28;20474;-62
2023/12/19 10:10:50;;;;;;;2.47;2.30;;;7.30;99.90;;;;;;5001717;28;20563;-62
2023/12/19 10:13:30;;;;;;;2.60;2.40;;;7.30;99.90;;;;;;4997748;28;20472;-62
2023/12/19 10:16:00;;;;;;;2.47;2.33;;;7.20;99.90;;;;;;4998044;28;20519;-62
2023/12/19 10:18:55;;;;;;;2.47;2.27;;;7.30;99.90;;;;;;5003978;28;20464;-61
2023/12/19 10:21:24;;;;;;;2.90;2.70;;;7.30;99.90;;;;;;5001411;28;20485;-61
2023/12/19 10:23:53;;;;;;;4.70;3.47;;;7.30;99.90;;;;;;5003810;28;20484;-61
2023/12/19 10:26:28;;;;;;;3.13;2.93;;;7.30;99.90;;;;;;5001939;28;20575;-61
2023/12/19 10:28:57;;;;;;;2.73;2.53;;;7.20;99.90;;;;;;5005871;28;20836;-61
2023/12/19 10:31:25;;;;;;;3.07;2.87;;;7.30;99.90;;;;;;5005624;28;20479;-62
2023/12/19 10:33:56;;;;;;;2.60;2.40;;;7.30;99.90;;;;;;5003120;28;20583;-62
2023/12/19 10:36:25;;;;;;;2.80;2.60;;;7.30;99.90;;;;;;5003668;28;20574;-61
2023/12/19 10:38:54;;;;;;;2.60;2.40;;;7.30;99.90;;;;;;5004991;28;20467;-62
2023/12/19 10:41:24;;;;;;;3.00;2.80;;;7.30;99.90;;;;;;5003952;28;20585;-61
2023/12/19 10:43:56;;;;;;;2.90;2.70;;;7.30;99.90;;;;;;5002746;28;20508;-63
2023/12/19 10:46:28;;;;;;;3.07;2.87;;;7.30;99.90;;;;;;5005279;28;20530;-63
2023/12/19 10:48:59;;;;;;;3.43;3.13;;;7.30;99.90;;;;;;5003533;28;20504;-62
2023/12/19 10:51:37;;;;;;;3.30;3.00;;;7.40;99.90;;;;;;5000741;28;20483;-61
2023/12/19 10:54:09;;;;;;;3.33;3.03;;;7.40;99.90;;;;;;5000278;28;20487;-64
2023/12/19 10:56:49;;;;;;;3.30;2.80;;;7.40;99.90;;;;;;5002271;28;20611;-63
2023/12/19 10:59:25;;;;;;;3.10;2.80;;;7.40;99.90;;;;;;5002744;28;20530;-63
2023/12/19 11:01:55;;;;;;;3.10;2.90;;;7.40;99.90;;;;;;5001380;28;20483;-62
2023/12/19 11:04:26;;;;;;;2.93;2.73;;;7.50;99.90;;;;;;5001722;28;20485;-62
2023/12/19 11:07:00;;;;;;;3.40;3.20;;;7.50;99.90;;;;;;5003514;28;20503;-62
2023/12/19 11:09:33;;;;;;;3.33;3.03;;;7.50;99.90;;;;;;5004578;28;21092;-64
2023/12/19 11:12:01;;;;;;;3.30;3.10;;;7.50;99.90;;;;;;5005072;28;20897;-62
2023/12/19 11:14:29;;;;;;;3.53;3.23;;;7.50;99.90;;;;;;5006433;28;20492;-63
2023/12/19 11:17:05;;;;;;;3.33;3.10;;;7.50;99.90;;;;;;5004929;28;20496;-62
2023/12/19 11:19:44;;;;;;;3.63;3.33;;;7.50;99.90;;;;;;5007924;28;20537;-61
2023/12/19 11:22:21;;;;;;;3.43;3.13;;;7.50;99.90;;;;;;5010228;28;20471;-63
2023/12/19 11:24:56;;;;;;;3.83;3.53;;;7.50;99.90;;;;;;5006625;28;21063;-60
2023/12/19 11:27:31;;;;;;;4.10;3.50;;;7.50;99.90;;;;;;5004764;28;20586;-62
2023/12/19 11:29:59;;;;;;;7.10;6.30;;;7.50;99.90;;;;;;5006640;28;20475;-61
2023/12/19 11:32:40;;;;;;;4.90;4.20;;;7.50;99.90;;;;;;5006352;28;20558;-61
2023/12/19 11:35:14;;;;;;;4.20;3.90;;;7.50;99.90;;;;;;5007498;28;20867;-61
2023/12/19 11:37:44;;;;;;;4.20;3.90;;;7.60;99.90;;;;;;5003676;28;20560;-61
2023/12/19 11:40:55;;;;;;;4.13;3.77;;;7.60;99.90;;;;;;5008757;28;20555;-61
2023/12/19 11:43:52;;;;;;;4.67;4.23;;;7.60;99.90;;;;;;4957582;28;21091;-61
2023/12/19 11:46:20;;;;;;;4.00;3.70;;;7.60;99.90;;;;;;5006570;28;21037;-61
2023/12/19 11:48:52;;;;;;;4.13;3.83;;;7.60;99.90;;;;;;5004989;28;20484;-61
2023/12/19 11:51:50;;;;;;;5.17;4.77;;;7.60;99.90;;;;;;5005639;28;20887;-61
2023/12/19 11:54:19;;;;;;;4.80;4.30;;;7.60;99.90;;;;;;5005983;28;20480;-62
2023/12/19 11:56:58;;;;;;;4.70;4.30;;;7.60;99.90;;;;;;5006351;28;20824;-61
2023/12/19 11:59:48;;;;;;;4.63;4.23;;;7.60;99.90;;;;;;5005583;28;20606;-63
2023/12/19 12:02:30;;;;;;;6.37;4.73;;;7.60;99.90;;;;;;5006789;28;20504;-62
2023/12/19 12:05:09;;;;;;;5.30;4.80;;;7.60;99.90;;;;;;5007282;28;20491;-62
2023/12/19 12:07:47;;;;;;;4.77;4.33;;;7.60;99.90;;;;;;5003322;28;20478;-61
2023/12/19 12:10:18;;;;;;;5.00;4.57;;;7.70;99.90;;;;;;5005574;28;20480;-61
2023/12/19 12:12:46;;;;;;;5.77;5.27;;;7.70;99.90;;;;;;5005832;28;20476;-61
2023/12/19 12:15:16;;;;;;;7.40;5.00;;;7.70;99.90;;;;;;5005445;28;20484;-62
2023/12/19 12:17:44;;;;;;;5.10;4.70;;;7.70;99.90;;;;;;4997456;28;20889;-63
2023/12/19 12:20:14;;;;;;;5.63;5.13;;;7.70;99.90;;;;;;5000590;28;20469;-62
2023/12/19 12:22:44;;;;;;;6.23;5.63;;;7.70;99.90;;;;;;5001534;28;20590;-61
2023/12/19 12:25:12;;;;;;;7.77;7.00;;;7.70;99.90;;;;;;4998777;28;21792;-62
2023/12/19 12:27:40;;;;;;;6.50;5.90;;;7.70;99.90;;;;;;5003169;28;20480;-61
2023/12/19 12:30:11;;;;;;;6.50;5.90;;;7.70;99.90;;;;;;5006572;28;20482;-61
2023/12/19 12:32:41;;;;;;;6.80;6.10;;;7.70;99.90;;;;;;5003327;28;20550;-62
2023/12/19 12:35:28;;;;;;;6.00;5.50;;;7.70;99.90;;;;;;5002351;28;21001;-62
2023/12/19 12:37:59;;;;;;;6.10;5.50;;;7.70;99.90;;;;;;5000547;28;20480;-62
2023/12/19 12:40:28;;;;;;;6.53;5.90;;;7.80;99.90;;;;;;5001234;28;20479;-62
2023/12/19 12:43:35;;;;;;;6.40;5.80;;;7.70;99.90;;;;;;4995170;28;20475;-62
2023/12/19 12:46:07;;;;;;;6.30;5.70;;;7.70;99.90;;;;;;4982039;28;20485;-64
2023/12/19 12:48:36;;;;;;;6.27;5.67;;;7.80;99.90;;;;;;4974499;28;20884;-63
2023/12/19 12:51:05;;;;;;;5.83;5.33;;;7.70;99.90;;;;;;4985567;28;20555;-61
2023/12/19 12:53:36;;;;;;;6.37;5.33;;;7.80;99.90;;;;;;4986420;28;20500;-61
2023/12/19 12:56:09;;;;;;;6.00;5.50;;;7.70;99.90;;;;;;4986036;28;20484;-63
2023/12/19 12:58:37;;;;;;;6.17;5.67;;;7.80;99.90;;;;;;4985225;28;20473;-63
2023/12/19 13:01:06;;;;;;;5.00;4.60;;;7.80;99.90;;;;;;4984634;28;20551;-61
2023/12/19 13:03:34;;;;;;;4.80;4.40;;;7.80;99.90;;;;;;4981257;28;20567;-61